Time;durP1;ratioP1;P1;durP2;ratioP2;P2;SDS_P1;SDS_P2;PMS_P1;PMS_P2;Temp;Humidity;BMP_temperature;BMP_pressure;BME280_temperature;BME280_humidity;BME280_pressure;Samples;Min_cycle;Max_cycle;Signal;HPM_P1;HPM_P2
2023/11/19 00:00:46;;;;;;;14.07;6.87;;;;;;;1.00;100.00;100915.63;1455057;90;22576;-87
2023/11/19 00:03:13;;;;;;;10.30;7.60;;;;;;;0.97;100.00;100917.93;1452876;90;21802;-89
2023/11/19 00:05:44;;;;;;;9.93;6.80;;;;;;;0.97;100.00;100917.93;1449380;90;21733;-88
2023/11/19 00:08:11;;;;;;;8.80;5.97;;;;;;;0.94;100.00;100918.08;1459404;89;21893;-89
2023/11/19 00:10:37;;;;;;;10.33;6.03;;;;;;;0.93;100.00;100915.56;1456817;90;21560;-88
2023/11/19 00:13:04;;;;;;;10.03;7.00;;;;;;;0.91;100.00;100909.11;1451477;90;21782;-86
2023/11/19 00:15:30;;;;;;;12.53;8.00;;;;;;;0.86;100.00;100905.88;1449996;90;21776;-88
2023/11/19 00:17:57;;;;;;;11.73;7.20;;;;;;;0.82;100.00;100914.77;1454130;90;21625;-89
2023/11/19 00:20:24;;;;;;;8.27;6.07;;;;;;;0.79;100.00;100902.73;1447653;90;21713;-90
2023/11/19 00:22:51;;;;;;;8.83;6.70;;;;;;;0.77;100.00;100908.92;1454371;89;21678;-91
2023/11/19 00:25:25;;;;;;;12.10;8.30;;;;;;;0.79;100.00;100909.23;1454829;90;21654;-88
2023/11/19 00:27:56;;;;;;;12.30;7.83;;;;;;;0.73;100.00;100912.14;1448439;90;21653;-90
2023/11/19 00:30:22;;;;;;;10.40;7.58;;;;;;;0.72;100.00;100920.02;1449506;90;22157;-90
2023/11/19 00:32:49;;;;;;;10.63;6.77;;;;;;;0.76;100.00;100926.33;1455069;90;21486;-90
2023/11/19 00:35:15;;;;;;;12.00;7.73;;;;;;;0.76;100.00;100915.90;1457830;90;21744;-89
2023/11/19 00:37:42;;;;;;;12.50;8.13;;;;;;;0.76;100.00;100913.76;1450262;90;21685;-90
2023/11/19 00:40:10;;;;;;;11.70;7.50;;;;;;;0.79;100.00;100905.80;1452563;89;21761;-89
2023/11/19 00:42:37;;;;;;;12.93;8.00;;;;;;;0.77;100.00;100905.02;1459901;89;21523;-84
2023/11/19 00:45:08;;;;;;;11.23;7.37;;;;;;;0.77;100.00;100900.64;1451179;89;21763;-90
2023/11/19 00:47:32;;;;;;;11.70;7.50;;;;;;;0.79;100.00;100897.52;1448105;90;21590;-89
2023/11/19 00:49:59;;;;;;;11.60;8.13;;;;;;;0.79;100.00;100904.03;1447461;90;22783;-88
2023/11/19 00:52:25;;;;;;;10.87;7.53;;;;;;;0.82;100.00;100906.48;1453279;90;22630;-89
2023/11/19 00:54:52;;;;;;;12.33;8.30;;;;;;;0.86;100.00;100900.66;1457069;90;21752;-86
2023/11/19 00:57:18;;;;;;;13.10;8.33;;;;;;;0.87;100.00;100908.42;1451198;90;22286;-88
2023/11/19 00:59:45;;;;;;;10.83;7.30;;;;;;;0.90;100.00;100903.05;1454264;90;21756;-87
2023/11/19 01:02:12;;;;;;;12.97;7.50;;;;;;;0.94;100.00;100904.20;1451911;90;21678;-89
2023/11/19 01:04:39;;;;;;;10.20;7.50;;;;;;;0.92;100.00;100896.45;1452823;90;21813;-89
2023/11/19 01:07:06;;;;;;;11.03;7.33;;;;;;;0.96;100.00;100897.16;1454316;90;22604;-88
2023/11/19 01:09:36;;;;;;;10.17;6.83;;;;;;;0.96;100.00;100878.45;1449110;89;21818;-89
2023/11/19 01:12:03;;;;;;;13.00;7.80;;;;;;;1.05;100.00;100870.64;1443574;90;21791;-88
2023/11/19 01:14:30;;;;;;;10.03;7.50;;;;;;;1.05;100.00;100870.64;1454414;90;22893;-88
2023/11/19 01:16:58;;;;;;;12.07;7.70;;;;;;;1.08;100.00;100871.80;1450719;90;21707;-89
2023/11/19 01:19:24;;;;;;;13.80;6.80;;;;;;;1.06;100.00;100869.71;1456922;89;21877;-89
2023/11/19 01:21:51;;;;;;;10.00;6.87;;;;;;;1.00;100.00;100873.93;1455314;89;21861;-88
2023/11/19 01:24:18;;;;;;;11.03;7.57;;;;;;;1.02;100.00;100877.31;1454142;90;21827;-87
2023/11/19 01:26:46;;;;;;;11.93;7.13;;;;;;;0.99;100.00;100867.05;1462276;90;21729;-90
2023/11/19 01:29:16;;;;;;;14.47;8.73;;;;;;;1.01;100.00;100867.82;1450623;89;21849;-88
2023/11/19 01:31:47;;;;;;;10.53;7.33;;;;;;;0.99;100.00;100872.25;1452798;89;21841;-89
2023/11/19 01:34:13;;;;;;;12.55;7.75;;;;;;;0.96;100.00;100871.10;1460519;89;21589;-90
2023/11/19 01:36:40;;;;;;;10.93;7.23;;;;;;;0.94;100.00;100868.56;1460719;90;21301;-88
2023/11/19 01:39:07;;;;;;;10.47;7.10;;;;;;;0.89;100.00;100868.80;1453234;90;21683;-88
2023/11/19 01:41:36;;;;;;;11.33;7.43;;;;;;;0.84;100.00;100866.88;1446637;90;21688;-89
2023/11/19 01:48:04;;;;;;;10.30;7.03;;;;;;;0.78;100.00;100869.78;1455512;90;23098;-88
2023/11/19 01:50:31;;;;;;;10.17;7.13;;;;;;;0.73;100.00;100863.94;1454016;89;22500;-88
2023/11/19 01:52:58;;;;;;;12.63;8.27;;;;;;;0.73;100.00;100862.64;1453470;90;21944;-88
2023/11/19 01:55:28;;;;;;;11.63;8.07;;;;;;;0.70;100.00;100859.34;1456255;90;21651;-89
2023/11/19 01:57:57;;;;;;;10.63;7.50;;;;;;;0.65;100.00;100860.86;1448692;89;21625;-87
2023/11/19 02:04:25;;;;;;;9.37;6.90;;;;;;;0.62;100.00;100860.54;1457346;90;21660;-89
2023/11/19 02:06:56;;;;;;;16.07;8.00;;;;;;;0.59;100.00;100851.57;1456667;89;21687;-90
2023/11/19 02:09:23;;;;;;;;;;;;;;;0.61;100.00;100854.12;1451318;90;22727;-90
2023/11/19 02:11:51;;;;;;;11.93;7.63;;;;;;;0.56;100.00;100849.58;1449368;90;20305;-89
2023/11/19 02:14:19;;;;;;;13.23;8.50;;;;;;;0.54;100.00;100838.38;1453063;89;21582;-90
2023/11/19 02:20:34;;;;;;;17.03;9.83;;;;;;;0.53;100.00;100840.61;1459628;90;21738;-87
2023/11/19 02:23:00;;;;;;;12.57;8.80;;;;;;;0.53;100.00;100827.59;1447215;89;21667;-88
2023/11/19 02:25:32;;;;;;;13.97;8.97;;;;;;;0.53;100.00;100828.89;1448593;89;21739;-88
2023/11/19 02:28:03;;;;;;;10.93;8.00;;;;;;;0.53;100.00;100827.59;1452049;90;21670;-87
2023/11/19 02:30:29;;;;;;;12.18;8.90;;;;;;;0.51;100.00;100832.02;1451454;89;21791;-88
2023/11/19 02:33:05;;;;;;;13.50;7.90;;;;;;;0.50;100.00;100836.86;1450956;90;21330;-88
2023/11/19 02:35:30;;;;;;;14.00;8.90;;;;;;;0.48;100.00;100838.67;1457291;90;22707;-87
2023/11/19 02:37:56;;;;;;;17.47;9.73;;;;;;;0.42;100.00;100830.23;1444268;89;21753;-88
2023/11/19 02:40:25;;;;;;;13.73;7.97;;;;;;;0.41;100.00;100831.62;1459268;90;21753;-88
2023/11/19 02:42:55;;;;;;;11.73;7.83;;;;;;;0.39;100.00;100834.28;1445378;90;22697;-88
2023/11/19 02:45:23;;;;;;;12.53;8.43;;;;;;;0.41;100.00;100832.47;1451805;89;21687;-87
2023/11/19 02:47:54;;;;;;;13.90;9.33;;;;;;;0.39;100.00;100828.23;1445058;90;21366;-87
2023/11/19 02:50:24;;;;;;;11.43;7.65;;;;;;;0.38;100.00;100831.31;1436306;90;21683;-88
2023/11/19 02:52:56;;;;;;;14.03;9.70;;;;;;;0.34;100.00;100827.14;1454635;90;21791;-88
2023/11/19 02:55:23;;;;;;;12.73;8.50;;;;;;;0.31;100.00;100830.36;1457124;89;22440;-88
2023/11/19 02:57:53;;;;;;;12.43;8.43;;;;;;;0.28;100.00;100820.93;1452663;90;21799;-88
2023/11/19 03:00:31;;;;;;;12.77;8.20;;;;;;;0.28;100.00;100819.63;1454510;89;22437;-87
2023/11/19 03:02:59;;;;;;;14.10;10.13;;;;;;;0.27;100.00;100821.86;1444206;89;21904;-88
2023/11/19 03:05:30;;;;;;;12.00;7.97;;;;;;;0.26;100.00;100818.01;1445605;90;22687;-88
2023/11/19 03:07:56;;;;;;;13.80;9.20;;;;;;;0.27;100.00;100822.32;1457649;89;21815;-88
2023/11/19 03:10:23;;;;;;;13.13;8.87;;;;;;;0.29;100.00;100820.03;1459493;89;21480;-88
2023/11/19 03:12:50;;;;;;;14.53;9.17;;;;;;;0.29;100.00;100816.13;1453711;90;21648;-88
2023/11/19 03:15:17;;;;;;;13.37;9.27;;;;;;;0.25;100.00;100819.77;1442795;90;21672;-88
2023/11/19 03:17:43;;;;;;;15.87;9.00;;;;;;;0.19;100.00;100814.86;1453773;89;21593;-87
2023/11/19 03:20:15;;;;;;;14.17;9.20;;;;;;;0.19;100.00;100830.48;1453769;89;21640;-88
2023/11/19 03:22:41;;;;;;;13.67;7.93;;;;;;;0.16;100.00;100817.61;1455112;89;21728;-86
2023/11/19 03:25:08;;;;;;;15.70;8.67;;;;;;;0.12;100.00;100821.28;1456768;89;22116;-88
2023/11/19 03:27:39;;;;;;;11.70;8.17;;;;;;;0.08;100.00;100819.72;1446878;90;21686;-88
2023/11/19 03:30:09;;;;;;;16.87;9.83;;;;;;;0.05;100.00;100815.50;1453656;89;21697;-88
2023/11/19 03:32:36;;;;;;;16.17;9.33;;;;;;;-0.02;100.00;100785.02;1446131;90;21426;-88
2023/11/19 03:35:04;;;;;;;18.33;10.90;;;;;;;-0.02;100.00;100785.02;1443822;90;22702;-88
2023/11/19 03:37:32;;;;;;;14.53;9.70;;;;;;;-0.01;100.00;100793.20;1453300;90;21708;-87
2023/11/19 03:39:59;;;;;;;19.90;9.70;;;;;;;-0.03;100.00;100786.37;1448509;90;21646;-87
2023/11/19 03:42:27;;;;;;;17.33;10.80;;;;;;;-0.07;100.00;100780.48;1459589;90;21719;-87
2023/11/19 03:44:54;;;;;;;14.47;9.43;;;;;;;-0.12;100.00;100783.73;1452040;90;21797;-85
2023/11/19 03:47:20;;;;;;;11.77;8.50;;;;;;;-0.18;100.00;100787.92;1424764;90;22147;-88
2023/11/19 03:49:53;;;;;;;25.30;12.23;;;;;;;-0.23;100.00;100789.92;1441494;90;21703;-90
2023/11/19 03:52:21;;;;;;;18.33;10.90;;;;;;;-0.28;100.00;100778.41;1436308;90;21585;-90
2023/11/19 03:54:48;;;;;;;17.57;10.53;;;;;;;-0.27;100.00;100776.65;1447911;90;21771;-89
2023/11/19 03:57:18;;;;;;;15.07;10.17;;;;;;;-0.28;100.00;100771.07;1449350;90;21649;-87
2023/11/19 03:59:45;;;;;;;16.95;11.22;;;;;;;-0.29;100.00;100770.66;1452809;90;21566;-88
2023/11/19 04:02:11;;;;;;;16.43;10.83;;;;;;;-0.34;100.00;100760.95;1453783;90;21643;-88
2023/11/19 04:04:38;;;;;;;15.23;10.23;;;;;;;-0.35;100.00;100757.94;1462916;90;21574;-88
2023/11/19 04:07:05;;;;;;;12.43;8.87;;;;;;;-0.39;100.00;100752.51;1447920;89;21743;-89
2023/11/19 04:09:37;;;;;;;15.17;9.67;;;;;;;-0.43;100.00;100745.73;1424324;90;21664;-87
2023/11/19 04:12:04;;;;;;;15.17;9.63;;;;;;;-0.47;100.00;100735.48;1452614;89;22569;-86
2023/11/19 04:14:30;;;;;;;16.23;9.67;;;;;;;-0.47;100.00;100725.54;1457479;89;21641;-87
2023/11/19 04:16:57;;;;;;;14.50;8.83;;;;;;;-0.48;100.00;100724.70;1454927;90;21583;-87
2023/11/19 04:19:24;;;;;;;19.00;9.63;;;;;;;-0.47;100.00;100726.38;1447740;90;21678;-87
2023/11/19 04:21:52;;;;;;;13.73;9.27;;;;;;;-0.47;100.00;100738.08;1455358;90;21666;-84
2023/11/19 04:24:18;;;;;;;12.90;10.33;;;;;;;-0.48;100.00;100745.50;1465473;86;21434;-80
2023/11/19 04:26:46;;;;;;;13.47;8.60;;;;;;;-0.51;100.00;100741.75;1469835;88;21611;-84
2023/11/19 04:29:20;;;;;;;13.53;9.43;;;;;;;-0.55;100.00;100742.78;1455696;86;21456;-86
2023/11/19 04:31:44;;;;;;;15.80;9.20;;;;;;;-0.59;100.00;100747.74;1451066;86;21582;-81
2023/11/19 04:34:25;;;;;;;;;;;;;;;;;;;;;
2023/11/19 04:36:41;;;;;;;11.97;7.57;;;;;;;-0.65;100.00;100761.02;1438848;90;21728;-87
2023/11/19 04:39:21;;;;;;;12.23;8.60;;;;;;;-0.65;100.00;100762.31;1468012;90;21688;-88
2023/11/19 04:41:36;;;;;;;14.63;8.70;;;;;;;-0.66;100.00;100768.44;1448110;90;21588;-87
2023/11/19 04:44:03;;;;;;;11.97;8.57;;;;;;;-0.67;100.00;100778.43;1452454;90;21679;-87
2023/11/19 04:46:31;;;;;;;14.07;8.80;;;;;;;-0.70;100.00;100769.47;1453288;90;21685;-88
2023/11/19 04:48:57;;;;;;;14.20;8.57;;;;;;;-0.72;100.00;100755.69;1454879;89;22619;-88
2023/11/19 04:51:24;;;;;;;10.63;7.53;;;;;;;-0.70;100.00;100751.27;1456355;89;22643;-87
2023/11/19 04:53:50;;;;;;;14.60;9.60;;;;;;;-0.70;100.00;100744.77;1455795;90;21647;-89
2023/11/19 04:56:19;;;;;;;12.70;8.90;;;;;;;-0.72;100.00;100743.98;1438259;90;22539;-87
2023/11/19 05:02:45;;;;;;;13.10;8.63;;;;;;;-0.77;100.00;100745.97;1452035;90;21603;-86
2023/11/19 05:05:12;;;;;;;15.00;9.77;;;;;;;-0.74;100.00;100764.03;1461943;90;21814;-86
2023/11/19 05:07:38;;;;;;;13.97;7.40;;;;;;;-0.72;100.00;100762.19;1454114;90;22611;-86
2023/11/19 05:16:46;;;;;;;17.50;11.37;;;;;;;-0.66;100.00;100732.05;1447612;90;21708;-87
2023/11/19 05:23:13;;;;;;;11.30;7.93;;;;;;;-0.63;100.00;100744.03;1451418;90;21836;-86
2023/11/19 05:25:40;;;;;;;14.70;9.97;;;;;;;-0.59;100.00;100724.34;1457025;90;21854;-84
2023/11/19 05:28:06;;;;;;;13.23;9.17;;;;;;;-0.57;100.00;100722.98;1451068;90;21562;-84
2023/11/19 05:30:32;;;;;;;14.67;9.90;;;;;;;-0.58;100.00;100719.98;1455383;90;21726;-84
2023/11/19 05:33:00;;;;;;;13.03;8.17;;;;;;;-0.59;100.00;100713.94;1454548;90;21657;-84
2023/11/19 05:35:27;;;;;;;13.47;8.73;;;;;;;-0.58;100.00;100711.72;1445609;90;21824;-83
2023/11/19 05:37:53;;;;;;;14.83;9.70;;;;;;;-0.57;100.00;100703.03;1456424;90;22705;-83
2023/11/19 05:40:20;;;;;;;12.60;8.97;;;;;;;-0.53;100.00;100707.16;1451655;90;21682;-83
2023/11/19 05:42:46;;;;;;;12.47;8.53;;;;;;;-0.51;100.00;100709.70;1456153;90;21557;-83
2023/11/19 05:45:13;;;;;;;14.13;8.77;;;;;;;-0.51;100.00;100715.74;1457820;90;21839;-84
2023/11/19 05:47:39;;;;;;;13.23;9.20;;;;;;;-0.52;100.00;100713.20;1446931;90;21881;-83
2023/11/19 05:50:06;;;;;;;13.37;9.80;;;;;;;-0.53;100.00;100712.36;1451442;90;21581;-85
2023/11/19 05:52:33;;;;;;;16.33;10.77;;;;;;;-0.52;100.00;100716.67;1452177;89;21536;-83
2023/11/19 05:55:04;;;;;;;17.63;11.10;;;;;;;-0.52;100.00;100723.17;1452722;90;22450;-84
2023/11/19 05:57:29;;;;;;;18.90;12.33;;;;;;;-0.51;100.00;100728.75;1450861;89;21477;-86
2023/11/19 05:59:56;;;;;;;19.77;13.10;;;;;;;-0.49;100.00;100711.75;1452035;90;22201;-85
2023/11/19 06:02:22;;;;;;;20.17;13.27;;;;;;;-0.47;100.00;100709.47;1454235;90;21703;-85
2023/11/19 06:04:49;;;;;;;29.80;17.73;;;;;;;-0.40;100.00;100710.48;1450060;90;21539;-85
2023/11/19 06:07:15;;;;;;;30.63;17.60;;;;;;;-0.36;100.00;100706.85;1450185;90;21757;-83
2023/11/19 06:09:42;;;;;;;26.97;16.20;;;;;;;-0.31;100.00;100706.19;1453308;90;21858;-84
2023/11/19 06:12:09;;;;;;;28.73;15.43;;;;;;;-0.26;100.00;100696.39;1451224;90;21997;-84
2023/11/19 06:14:35;;;;;;;29.13;15.50;;;;;;;-0.24;100.00;100697.16;1455670;90;21677;-85
2023/11/19 06:17:01;;;;;;;27.63;16.00;;;;;;;-0.21;100.00;100702.69;1464559;90;22814;-88
2023/11/19 06:19:28;;;;;;;24.73;16.87;;;;;;;-0.18;100.00;100702.08;1456672;90;22461;-88
2023/11/19 06:21:54;;;;;;;29.70;18.50;;;;;;;-0.18;100.00;100715.09;1449887;90;21348;-84
2023/11/19 06:24:20;;;;;;;38.77;25.30;;;;;;;-0.16;100.00;100728.03;1454947;90;21808;-85
2023/11/19 06:26:47;;;;;;;39.03;25.50;;;;;;;-0.13;100.00;100732.63;1450421;90;21657;-85
2023/11/19 06:29:18;;;;;;;42.20;29.50;;;;;;;-0.09;100.00;100730.26;1450490;90;21662;-86
2023/11/19 06:31:42;;;;;;;41.77;25.47;;;;;;;-0.01;100.00;100715.59;1453120;89;21818;-86
2023/11/19 06:34:08;;;;;;;36.33;23.13;;;;;;;0.07;100.00;100711.33;1445386;90;22917;-86
2023/11/19 06:36:35;;;;;;;41.30;22.53;;;;;;;0.14;100.00;100707.50;1454179;90;21604;-86
2023/11/19 06:39:01;;;;;;;37.47;21.73;;;;;;;0.21;100.00;100719.32;1450571;89;22570;-87
2023/11/19 06:41:29;;;;;;;32.03;19.97;;;;;;;0.26;100.00;100722.55;1455625;90;21796;-88
2023/11/19 06:43:55;;;;;;;30.07;19.83;;;;;;;0.30;100.00;100727.98;1456510;90;21566;-84
2023/11/19 06:46:22;;;;;;;27.07;18.63;;;;;;;0.35;100.00;100729.07;1458134;90;21767;-88
2023/11/19 06:48:48;;;;;;;28.20;18.40;;;;;;;0.38;100.00;100733.66;1453175;90;21612;-84
2023/11/19 06:51:15;;;;;;;25.77;16.80;;;;;;;0.42;100.00;100737.79;1444841;89;22905;-91
2023/11/19 06:53:44;;;;;;;21.93;13.53;;;;;;;0.51;100.00;100738.26;1454988;90;22440;-87
2023/11/19 06:56:21;;;;;;;18.73;12.27;;;;;;;0.56;100.00;100736.28;1449983;89;21823;-88
2023/11/19 07:02:49;;;;;;;19.80;12.90;;;;;;;0.74;100.00;100740.55;1454867;90;21739;-87
2023/11/19 07:05:16;;;;;;;16.70;12.13;;;;;;;0.85;100.00;100745.23;1454530;90;21666;-87
2023/11/19 07:07:43;;;;;;;14.17;10.03;;;;;;;0.89;100.00;100742.41;1453454;90;22735;-87
2023/11/19 07:10:09;;;;;;;16.57;12.37;;;;;;;0.95;100.00;100739.08;1460578;90;21716;-80
2023/11/19 07:12:35;;;;;;;14.13;9.90;;;;;;;1.02;100.00;100744.38;1450565;90;21758;-82
2023/11/19 07:15:03;;;;;;;14.33;10.03;;;;;;;1.08;100.00;100744.05;1452667;90;21742;-80
2023/11/19 07:17:31;;;;;;;16.03;10.93;;;;;;;1.17;100.00;100750.09;1449776;90;21751;-80
2023/11/19 07:20:00;;;;;;;18.00;10.17;;;;;;;1.25;100.00;100752.31;1449124;89;22754;-85
2023/11/19 07:23:16;;;;;;;13.93;9.93;;;;;;;1.31;100.00;100746.30;1455938;90;21831;-84
2023/11/19 07:25:46;;;;;;;13.57;9.93;;;;;;;1.40;100.00;100742.84;1451049;89;21923;-86
2023/11/19 07:28:11;;;;;;;50.53;26.77;;;;;;;1.54;100.00;100728.13;1464140;89;22831;-81
2023/11/19 07:30:38;;;;;;;65.37;42.63;;;;;;;1.66;100.00;100722.70;1445071;90;22178;-81
2023/11/19 07:33:05;;;;;;;35.70;24.87;;;;;;;1.75;100.00;100718.75;1445663;89;22385;-85
2023/11/19 07:35:39;;;;;;;28.07;17.63;;;;;;;1.93;100.00;100727.36;1443741;89;23253;-85
2023/11/19 07:38:05;;;;;;;18.07;12.27;;;;;;;2.13;100.00;100726.22;1451876;90;22048;-84
2023/11/19 07:40:31;;;;;;;19.03;12.23;;;;;;;2.20;100.00;100725.80;1437193;90;22090;-86
2023/11/19 07:42:57;;;;;;;16.70;11.83;;;;;;;2.20;100.00;100725.80;1450829;89;22105;-86
2023/11/19 07:45:23;;;;;;;20.13;13.47;;;;;;;2.36;100.00;100739.28;1451964;90;22222;-85
2023/11/19 07:47:51;;;;;;;14.80;9.73;;;;;;;2.47;100.00;100749.97;1451790;90;23119;-87
2023/11/19 07:50:20;;;;;;;13.57;9.80;;;;;;;2.56;100.00;100736.39;1455604;90;22331;-83
2023/11/19 07:52:45;;;;;;;15.63;11.00;;;;;;;2.61;100.00;100746.09;1451035;89;22087;-84
2023/11/19 07:55:12;;;;;;;14.53;10.27;;;;;;;2.64;100.00;100739.85;1450763;90;22990;-85
2023/11/19 07:57:38;;;;;;;14.23;9.83;;;;;;;2.64;100.00;100744.61;1454009;90;22239;-84
2023/11/19 08:00:12;;;;;;;16.17;10.63;;;;;;;2.67;100.00;100752.27;1442631;90;22175;-88
2023/11/19 08:02:36;;;;;;;17.23;11.53;;;;;;;2.65;100.00;100744.17;1448876;90;22317;-80
2023/11/19 08:05:02;;;;;;;17.80;11.97;;;;;;;2.64;100.00;100727.63;1453382;90;23021;-84
2023/11/19 08:07:28;;;;;;;15.50;11.03;;;;;;;2.64;100.00;100722.87;1448202;90;23036;-85
2023/11/19 08:09:55;;;;;;;16.83;11.63;;;;;;;2.70;100.00;100719.89;1450382;90;22023;-82
2023/11/19 08:12:21;;;;;;;23.13;15.17;;;;;;;2.71;100.00;100698.91;1449062;89;21509;-84
2023/11/19 08:14:49;;;;;;;17.27;11.27;;;;;;;2.71;100.00;100698.91;1455093;89;22404;-85
2023/11/19 08:17:16;;;;;;;20.33;11.93;;;;;;;2.77;100.00;100721.70;1455050;90;21390;-81
2023/11/19 08:19:42;;;;;;;17.53;11.53;;;;;;;2.71;100.00;100712.45;1455182;90;21375;-81
2023/11/19 08:22:09;;;;;;;24.30;13.07;;;;;;;2.78;100.00;100711.61;1445959;89;22052;-84
2023/11/19 08:24:36;;;;;;;19.50;13.30;;;;;;;2.76;100.00;100702.53;1448320;90;22077;-84
2023/11/19 08:27:02;;;;;;;22.53;14.07;;;;;;;2.73;100.00;100700.58;1449811;90;23030;-82
2023/11/19 08:29:29;;;;;;;20.57;13.90;;;;;;;2.73;100.00;100711.03;1447728;90;22070;-81
2023/11/19 08:31:55;;;;;;;22.90;13.50;;;;;;;2.75;100.00;100706.09;1446766;90;22032;-85
2023/11/19 08:34:21;;;;;;;18.87;11.40;;;;;;;2.80;100.00;100697.98;1452544;90;23163;-84
2023/11/19 08:36:53;;;;;;;13.97;9.93;;;;;;;2.84;100.00;100697.70;1457252;89;22134;-84
2023/11/19 08:39:21;;;;;;;14.90;10.77;;;;;;;2.91;100.00;100691.66;1457355;90;22217;-83
2023/11/19 08:41:49;;;;;;;17.27;11.97;;;;;;;3.07;100.00;100727.70;1457880;90;22125;-83
2023/11/19 08:44:15;;;;;;;18.27;11.27;;;;;;;3.09;100.00;100712.77;1449206;90;22344;-83
2023/11/19 08:46:51;;;;;;;18.57;12.23;;;;;;;3.09;100.00;100712.77;1459856;90;22463;-84
2023/11/19 08:49:17;;;;;;;21.20;13.50;;;;;;;3.21;100.00;100712.95;1450307;90;21346;-84
2023/11/19 08:51:45;;;;;;;20.43;13.37;;;;;;;3.25;100.00;100706.59;1447733;89;21536;-79
2023/11/19 08:54:12;;;;;;;24.33;15.97;;;;;;;3.27;100.00;100687.73;1449335;89;21479;-83
2023/11/19 08:56:39;;;;;;;26.63;16.87;;;;;;;3.24;100.00;100692.67;1458828;90;21522;-84
2023/11/19 08:59:05;;;;;;;23.20;14.30;;;;;;;3.19;100.00;100689.97;1448026;89;22061;-83
2023/11/19 09:01:32;;;;;;;28.30;16.73;;;;;;;3.15;100.00;100693.24;1452626;90;22258;-84
2023/11/19 09:03:58;;;;;;;21.67;13.13;;;;;;;3.13;100.00;100689.41;1454508;90;21442;-83
2023/11/19 09:06:24;;;;;;;28.03;16.77;;;;;;;3.14;100.00;100698.95;1455689;90;21527;-84
2023/11/19 09:08:50;;;;;;;23.53;14.67;;;;;;;3.15;100.00;100686.23;1453901;90;21851;-83
2023/11/19 09:11:17;;;;;;;25.60;15.97;;;;;;;3.28;100.00;100681.55;1452432;90;21435;-83
2023/11/19 09:13:45;;;;;;;27.83;17.07;;;;;;;3.38;100.00;100681.37;1452669;90;21589;-85
2023/11/19 09:16:13;;;;;;;27.70;17.23;;;;;;;3.50;100.00;100686.30;1455433;89;21287;-84
2023/11/19 09:18:39;;;;;;;26.43;16.70;;;;;;;3.62;100.00;100688.14;1449984;89;21493;-85
2023/11/19 09:21:07;;;;;;;32.97;19.07;;;;;;;3.88;100.00;100679.94;1450375;90;21316;-84
2023/11/19 09:23:38;;;;;;;25.10;14.27;;;;;;;4.20;100.00;100670.02;1456408;90;22279;-85
2023/11/19 09:26:01;;;;;;;24.90;15.63;;;;;;;4.28;100.00;100673.42;1450994;89;21464;-84
2023/11/19 09:28:27;;;;;;;31.33;16.80;;;;;;;4.38;100.00;100677.13;1450494;90;21368;-82
2023/11/19 09:30:53;;;;;;;25.00;15.70;;;;;;;4.85;100.00;100665.20;1454341;90;22296;-81
2023/11/19 09:33:19;;;;;;;19.57;11.73;;;;;;;5.40;100.00;100658.73;1447983;90;21391;-81
2023/11/19 09:35:45;;;;;;;15.53;12.63;;;;;;;5.78;100.00;100643.80;1453659;89;21317;-82
2023/11/19 09:38:12;;;;;;;15.97;11.40;;;;;;;5.89;100.00;100634.19;1456321;89;21453;-81
2023/11/19 09:40:38;;;;;;;20.33;13.53;;;;;;;6.01;100.00;100627.70;1444509;89;21383;-83
2023/11/19 09:43:05;;;;;;;17.77;12.30;;;;;;;6.16;100.00;100638.41;1463050;90;21611;-82
2023/11/19 09:45:34;;;;;;;21.80;13.60;;;;;;;6.14;100.00;100627.17;1455034;90;22292;-82
2023/11/19 09:48:02;;;;;;;23.63;14.93;;;;;;;6.07;100.00;100625.94;1452819;89;21427;-81
2023/11/19 09:50:29;;;;;;;23.07;11.60;;;;;;;6.08;100.00;100619.75;1442406;90;21512;-81
2023/11/19 09:52:55;;;;;;;13.13;9.83;;;;;;;6.40;100.00;100619.13;1461792;89;21353;-81
2023/11/19 09:55:21;;;;;;;12.30;9.50;;;;;;;6.91;100.00;100616.09;1452948;90;21553;-83
2023/11/19 09:57:50;;;;;;;10.50;8.80;;;;;;;7.24;100.00;100625.27;1457056;89;21339;-79
2023/11/19 10:00:19;;;;;;;13.93;9.87;;;;;;;7.36;100.00;100635.78;1456287;90;22042;-81
2023/11/19 10:02:46;;;;;;;13.57;9.20;;;;;;;7.50;100.00;100631.58;1456293;89;21554;-81
2023/11/19 10:05:14;;;;;;;10.97;8.87;;;;;;;7.58;100.00;100635.75;1440382;90;21426;-81
2023/11/19 10:07:41;;;;;;;9.07;7.47;;;;;;;7.72;100.00;100632.50;1452917;89;22358;-84
2023/11/19 10:10:11;;;;;;;12.30;9.37;;;;;;;7.80;100.00;100635.36;1450875;90;21427;-84
2023/11/19 10:12:37;;;;;;;12.15;7.50;;;;;;;7.92;100.00;100634.34;1444380;89;21375;-77
2023/11/19 10:15:07;;;;;;;12.03;9.23;;;;;;;8.02;100.00;100639.20;1456765;90;22541;-77
2023/11/19 10:17:34;;;;;;;10.83;8.33;;;;;;;8.11;100.00;100652.97;1457516;89;21465;-77
2023/11/19 10:20:02;;;;;;;11.27;8.40;;;;;;;8.09;100.00;100644.34;1457681;90;21361;-75
2023/11/19 10:22:28;;;;;;;11.03;8.93;;;;;;;8.05;100.00;100642.07;1450268;90;21549;-76
2023/11/19 10:24:55;;;;;;;12.20;9.67;;;;;;;7.92;100.00;100643.57;1450437;90;21561;-75
2023/11/19 10:27:26;;;;;;;13.67;8.77;;;;;;;7.86;100.00;100646.70;1448988;90;22297;-81
2023/11/19 10:29:52;;;;;;;;;;;;;;;7.73;100.00;100653.92;1449476;90;21472;-81
2023/11/19 10:32:18;;;;;;;11.50;8.27;;;;;;;7.47;100.00;100648.94;1461891;90;20380;-81
2023/11/19 10:34:44;;;;;;;15.33;9.80;;;;;;;7.43;100.00;100654.11;1445218;89;21554;-82
2023/11/19 10:37:35;;;;;;;11.70;9.20;;;;;;;7.32;100.00;100651.48;1444104;90;21390;-83
2023/11/19 10:40:05;;;;;;;11.83;8.37;;;;;;;7.21;100.00;100648.37;1452609;89;22425;-81
2023/11/19 10:42:31;;;;;;;11.60;8.83;;;;;;;6.95;100.00;100646.45;1457037;89;21911;-81
2023/11/19 10:44:57;;;;;;;10.63;8.60;;;;;;;6.73;100.00;100643.31;1451186;90;21465;-80
2023/11/19 10:47:24;;;;;;;11.77;8.30;;;;;;;6.56;100.00;100643.31;1450850;90;21405;-81
2023/11/19 10:49:50;;;;;;;10.17;7.93;;;;;;;6.37;100.00;100643.02;1452066;90;21526;-83
2023/11/19 10:52:19;;;;;;;13.17;8.83;;;;;;;6.20;100.00;100628.02;1447218;90;22137;-81
2023/11/19 10:54:51;;;;;;;14.80;10.77;;;;;;;5.95;100.00;100617.17;1454365;90;21493;-82
2023/11/19 10:57:24;;;;;;;16.73;9.97;;;;;;;5.78;100.00;100603.09;1535346;89;21588;-80
2023/11/19 10:59:54;;;;;;;14.17;10.17;;;;;;;5.62;100.00;100590.27;1546586;89;22071;-82
2023/11/19 11:02:24;;;;;;;11.25;9.03;;;;;;;5.52;100.00;100583.98;1521746;90;21392;-80
2023/11/19 11:04:51;;;;;;;14.03;7.43;;;;;;;5.39;100.00;100586.20;1382086;89;21435;-81
2023/11/19 11:07:24;;;;;;;11.57;7.90;;;;;;;5.22;100.00;100586.57;1378538;89;21310;-83
2023/11/19 11:09:51;;;;;;;10.93;7.80;;;;;;;5.07;100.00;100575.86;1439543;90;22372;-83
2023/11/19 11:12:20;;;;;;;10.70;7.80;;;;;;;4.92;100.00;100573.81;1454000;90;21418;-82
2023/11/19 11:14:47;;;;;;;9.40;6.67;;;;;;;4.75;100.00;100562.74;1449443;89;21353;-84
2023/11/19 11:17:17;;;;;;;12.17;7.60;;;;;;;4.68;100.00;100548.84;1453809;89;21375;-83
2023/11/19 11:19:44;;;;;;;21.90;14.03;;;;;;;4.62;100.00;100546.66;1462101;90;22292;-83
2023/11/19 11:22:12;;;;;;;19.10;12.73;;;;;;;4.58;100.00;100542.58;1458271;90;21538;-84
2023/11/19 11:24:52;;;;;;;17.57;11.90;;;;;;;4.55;100.00;100548.87;1457799;89;21368;-84
2023/11/19 11:27:33;;;;;;;21.15;12.60;;;;;;;4.53;100.00;100541.58;1461887;90;22395;-81
2023/11/19 11:30:47;;;;;;;16.77;10.90;;;;;;;4.50;100.00;100545.25;1456785;89;21354;-81
2023/11/19 11:33:50;;;;;;;16.23;11.40;;;;;;;4.53;100.00;100552.89;1454249;89;21412;-82
2023/11/19 11:36:21;;;;;;;16.20;10.17;;;;;;;4.55;100.00;100569.01;1451668;89;21568;-83
2023/11/19 11:38:50;;;;;;;13.65;9.13;;;;;;;4.58;100.00;100563.55;1459906;90;21287;-83
2023/11/19 11:41:25;;;;;;;15.93;9.90;;;;;;;4.59;100.00;100567.84;1454633;90;21383;-84
2023/11/19 11:43:55;;;;;;;16.27;11.60;;;;;;;4.58;100.00;100561.77;1456968;89;21449;-82
2023/11/19 11:46:39;;;;;;;18.00;11.87;;;;;;;4.57;100.00;100572.34;1451018;89;21575;-82
2023/11/19 11:49:07;;;;;;;22.20;14.23;;;;;;;4.58;100.00;100572.73;1462066;89;22218;-83